createdAt,value
2024-04-15T00:02:27.007Z,9.80
2024-04-15T00:04:55.011Z,8.90
2024-04-15T00:07:22.883Z,10.90
2024-04-15T00:09:50.941Z,7.40
2024-04-15T00:12:18.984Z,10.50
2024-04-15T00:14:46.849Z,7.50
2024-04-15T00:17:14.757Z,7.90
2024-04-15T00:19:42.773Z,8.20
2024-04-15T00:22:10.850Z,9.30
2024-04-15T00:24:39.101Z,6.80
2024-04-15T00:27:07.025Z,10.90
2024-04-15T00:29:35.107Z,9.60
2024-04-15T00:32:03.347Z,7.40
2024-04-15T00:34:32.934Z,12.10
2024-04-15T00:37:01.124Z,10.30
2024-04-15T00:39:29.236Z,8.10
2024-04-15T00:41:57.405Z,10.80
2024-04-15T00:44:34.942Z,9.70
2024-04-15T00:47:04.359Z,11.20
2024-04-15T00:49:34.971Z,9.70
2024-04-15T00:52:04.963Z,8.90
2024-04-15T00:54:35.190Z,8.90
2024-04-15T00:57:04.168Z,10.40
2024-04-15T00:59:34.518Z,9.60
2024-04-15T01:02:02.860Z,8.20
2024-04-15T01:04:31.026Z,8.80
2024-04-15T01:06:59.460Z,9.50
2024-04-15T01:09:27.336Z,9.50
2024-04-15T01:11:55.484Z,8.40
2024-04-15T01:14:23.426Z,8.60
2024-04-15T01:16:51.385Z,6.50
2024-04-15T01:19:19.536Z,7.00
2024-04-15T01:21:47.644Z,8.90
2024-04-15T01:24:15.849Z,8.50
2024-04-15T01:26:50.123Z,7.70
2024-04-15T01:29:18.007Z,6.30
2024-04-15T01:31:45.868Z,9.10
2024-04-15T01:34:13.867Z,11.40
2024-04-15T01:36:42.033Z,8.40
2024-04-15T01:39:10.669Z,9.60
2024-04-15T01:41:39.000Z,12.00
2024-04-15T01:44:07.340Z,8.50
2024-04-15T01:46:35.205Z,6.70
2024-04-15T01:49:03.644Z,11.30
2024-04-15T01:51:31.599Z,12.30
2024-04-15T01:54:00.143Z,9.90
2024-04-15T01:56:28.024Z,7.60
2024-04-15T01:58:55.969Z,8.10
2024-04-15T02:01:23.963Z,9.40
2024-04-15T02:03:52.268Z,10.80
2024-04-15T02:06:20.275Z,8.40
2024-04-15T02:08:48.388Z,7.20
2024-04-15T02:11:16.215Z,9.80
2024-04-15T02:13:44.306Z,10.20
2024-04-15T02:16:12.387Z,10.00
2024-04-15T02:18:40.808Z,7.10
2024-04-15T02:21:09.003Z,9.60
2024-04-15T02:23:37.150Z,7.00
2024-04-15T02:26:05.042Z,7.60
2024-04-15T02:28:33.062Z,9.00
2024-04-15T02:31:01.824Z,10.40
2024-04-15T02:33:30.138Z,11.70
2024-04-15T02:35:58.284Z,9.10
2024-04-15T02:38:26.363Z,9.40
2024-04-15T02:40:56.064Z,9.80
2024-04-15T02:43:24.311Z,9.20
2024-04-15T02:45:52.188Z,8.00
2024-04-15T02:48:20.231Z,10.20
2024-04-15T02:50:48.457Z,13.40
2024-04-15T02:53:16.422Z,8.80
2024-04-15T02:55:44.296Z,10.70
2024-04-15T02:58:12.323Z,10.10
2024-04-15T03:00:40.601Z,11.50
2024-04-15T03:03:08.619Z,11.20
2024-04-15T03:05:46.769Z,9.40
2024-04-15T03:08:14.828Z,9.60
2024-04-15T03:10:42.855Z,9.40
2024-04-15T03:13:10.876Z,12.00
2024-04-15T03:15:38.937Z,10.30
2024-04-15T03:18:06.899Z,7.90
2024-04-15T03:20:35.344Z,9.00
2024-04-15T03:23:03.864Z,7.20
2024-04-15T03:25:31.701Z,10.30
2024-04-15T03:27:59.784Z,10.70
2024-04-15T03:30:27.911Z,10.20
2024-04-15T03:32:56.207Z,11.80
2024-04-15T03:35:24.333Z,8.70
2024-04-15T03:37:52.145Z,16.40
2024-04-15T03:40:20.087Z,12.60
2024-04-15T03:42:49.345Z,8.90
2024-04-15T03:45:18.101Z,7.40
2024-04-15T03:47:46.618Z,8.50
2024-04-15T03:50:14.786Z,10.20
2024-04-15T03:52:42.654Z,13.30
2024-04-15T03:55:10.574Z,10.20
2024-04-15T03:57:39.398Z,10.30
2024-04-15T04:00:08.590Z,12.90
2024-04-15T04:02:36.660Z,9.60
2024-04-15T04:05:06.568Z,14.90
2024-04-15T04:07:38.764Z,13.80
2024-04-15T04:10:09.753Z,11.30
2024-04-15T04:12:37.832Z,9.20
2024-04-15T04:15:06.439Z,16.80
2024-04-15T04:17:34.526Z,11.20
2024-04-15T04:20:03.011Z,9.60
2024-04-15T04:22:31.424Z,11.50
2024-04-15T04:24:59.546Z,10.30
2024-04-15T04:27:28.503Z,14.00
2024-04-15T04:29:56.690Z,14.60
2024-04-15T04:32:25.087Z,12.40
2024-04-15T04:34:53.274Z,15.40
2024-04-15T04:37:21.194Z,24.20
2024-04-15T04:39:51.794Z,14.70
2024-04-15T04:42:19.882Z,15.20
2024-04-15T04:44:48.060Z,21.50
2024-04-15T04:47:17.188Z,24.00
2024-04-15T04:49:45.397Z,22.70
2024-04-15T04:52:13.442Z,15.30
2024-04-15T04:54:41.608Z,20.80
2024-04-15T04:57:10.020Z,19.30
2024-04-15T04:59:38.891Z,14.70
2024-04-15T05:02:08.004Z,18.60
2024-04-15T05:04:36.421Z,22.40
2024-04-15T05:07:04.714Z,14.70
2024-04-15T05:09:32.929Z,16.90
2024-04-15T05:12:00.950Z,15.10
2024-04-15T05:14:28.802Z,18.90
2024-04-15T05:16:56.664Z,13.60
2024-04-15T05:19:24.908Z,21.00
2024-04-15T05:21:53.271Z,15.30
2024-04-15T05:24:21.166Z,13.90
2024-04-15T05:26:49.065Z,20.70
2024-04-15T05:29:17.400Z,17.60
2024-04-15T05:31:45.478Z,18.20
2024-04-15T05:34:13.671Z,16.40
2024-04-15T05:36:41.937Z,17.50
2024-04-15T05:39:09.946Z,30.00
2024-04-15T05:41:37.901Z,19.20
2024-04-15T05:44:07.705Z,17.30
2024-04-15T05:46:47.744Z,10.40
2024-04-15T05:49:15.798Z,12.30
2024-04-15T05:51:44.970Z,7.00
2024-04-15T05:54:13.455Z,10.40
2024-04-15T05:56:41.683Z,13.10
2024-04-15T05:59:09.822Z,10.60
2024-04-15T06:01:37.884Z,10.80
2024-04-15T06:04:07.024Z,10.60
2024-04-15T06:06:35.179Z,8.50
2024-04-15T06:09:03.455Z,10.70
2024-04-15T06:11:31.669Z,10.70
2024-04-15T06:13:59.793Z,8.00
2024-04-15T06:16:27.962Z,12.30
2024-04-15T06:18:55.998Z,11.30
2024-04-15T06:21:24.216Z,11.50
2024-04-15T06:23:52.024Z,9.90
2024-04-15T06:26:20.121Z,7.20
2024-04-15T06:28:48.144Z,7.40
2024-04-15T06:31:16.263Z,6.50
2024-04-15T06:33:44.262Z,8.40
2024-04-15T06:36:12.569Z,14.70
2024-04-15T06:38:40.425Z,7.00
2024-04-15T06:41:08.492Z,11.40
2024-04-15T06:43:36.858Z,10.70
2024-04-15T06:46:04.938Z,8.20
2024-04-15T06:48:33.228Z,9.30
2024-04-15T06:51:02.037Z,11.80
2024-04-15T06:53:30.163Z,10.00
2024-04-15T06:55:58.310Z,10.30
2024-04-15T06:58:27.808Z,12.00
2024-04-15T07:00:58.994Z,14.70
2024-04-15T07:03:27.252Z,11.60
2024-04-15T07:05:55.539Z,8.60
2024-04-15T07:08:23.443Z,8.70
2024-04-15T07:10:53.060Z,6.90
2024-04-15T07:13:21.053Z,11.00
2024-04-15T07:15:49.850Z,6.60
2024-04-15T07:18:17.924Z,9.30
2024-04-15T07:20:47.376Z,9.90
2024-04-15T07:23:15.417Z,7.60
2024-04-15T07:25:43.534Z,8.60
2024-04-15T07:28:11.489Z,7.50
2024-04-15T07:30:39.521Z,10.10
2024-04-15T07:33:07.955Z,10.10
2024-04-15T07:35:37.139Z,6.40
2024-04-15T07:38:05.470Z,8.40
2024-04-15T07:40:33.515Z,7.30
2024-04-15T07:43:01.994Z,4.20
2024-04-15T07:45:30.073Z,5.40
2024-04-15T07:47:57.990Z,7.20
2024-04-15T07:50:27.529Z,12.20
2024-04-15T07:52:55.724Z,10.60
2024-04-15T07:55:24.032Z,11.70
2024-04-15T07:57:52.236Z,6.90
2024-04-15T08:00:20.535Z,5.10
2024-04-15T08:02:48.907Z,4.50
2024-04-15T08:05:19.307Z,4.20
2024-04-15T08:07:47.366Z,6.80
2024-04-15T08:10:15.922Z,11.80
2024-04-15T08:12:46.255Z,7.90
2024-04-15T08:15:14.879Z,7.70
2024-04-15T08:17:44.198Z,6.80
2024-04-15T08:20:12.340Z,7.40
2024-04-15T08:22:42.006Z,7.00
2024-04-15T08:25:10.350Z,5.60
2024-04-15T08:27:38.698Z,6.20
2024-04-15T08:30:07.925Z,6.90
2024-04-15T08:32:37.597Z,8.80
2024-04-15T08:35:06.177Z,5.30
2024-04-15T08:37:34.181Z,4.90
2024-04-15T08:40:02.260Z,8.80
2024-04-15T08:42:54.538Z,5.40
2024-04-15T08:45:25.028Z,4.90
2024-04-15T08:47:54.804Z,4.30
2024-04-15T08:50:24.335Z,5.00
2024-04-15T08:52:54.886Z,4.50
2024-04-15T08:55:24.858Z,5.20
2024-04-15T08:57:54.068Z,5.30
2024-04-15T09:00:23.418Z,6.60
2024-04-15T09:02:55.223Z,5.50
2024-04-15T09:05:23.655Z,6.60
2024-04-15T09:07:51.921Z,7.60
2024-04-15T09:10:20.474Z,6.90
2024-04-15T09:12:49.528Z,6.40
2024-04-15T09:15:23.904Z,10.60
2024-04-15T09:17:53.785Z,7.40
2024-04-15T09:20:34.943Z,6.80
2024-04-15T09:23:11.304Z,5.90
2024-04-15T09:25:39.822Z,3.80
2024-04-15T09:28:08.011Z,3.50
2024-04-15T09:30:36.088Z,5.90
2024-04-15T09:33:06.771Z,10.40
2024-04-15T09:35:35.037Z,7.80
2024-04-15T09:38:04.531Z,6.80
2024-04-15T09:40:34.745Z,7.90
2024-04-15T09:43:04.400Z,6.00
2024-04-15T09:45:33.075Z,11.20
2024-04-15T09:48:01.976Z,12.10
2024-04-15T09:50:33.061Z,6.40
2024-04-15T09:53:02.468Z,5.70
2024-04-15T09:55:35.001Z,5.20
2024-04-15T09:58:04.688Z,6.40
2024-04-15T10:00:36.370Z,3.60
2024-04-15T10:03:14.606Z,5.20
2024-04-15T10:05:45.691Z,5.80
2024-04-15T10:08:14.910Z,5.00
2024-04-15T10:10:43.916Z,3.60
2024-04-15T10:13:12.483Z,6.00
2024-04-15T10:15:41.230Z,3.80
2024-04-15T10:18:13.714Z,3.20
2024-04-15T10:20:44.058Z,5.60
2024-04-15T10:23:16.920Z,4.80
2024-04-15T10:25:45.314Z,12.70
2024-04-15T10:28:16.207Z,7.10
2024-04-15T10:30:48.225Z,6.30
2024-04-15T10:33:21.223Z,8.30
2024-04-15T10:35:53.285Z,4.30
2024-04-15T10:38:21.664Z,3.10
2024-04-15T10:40:50.270Z,4.60
2024-04-15T10:43:20.096Z,3.30
2024-04-15T10:45:49.623Z,6.70
2024-04-15T10:48:18.207Z,3.20
2024-04-15T10:50:46.614Z,5.30
2024-04-15T10:53:16.290Z,6.70
2024-04-15T10:55:44.506Z,3.80
2024-04-15T10:58:13.993Z,7.00
2024-04-15T11:00:45.930Z,6.30
2024-04-15T11:03:14.373Z,4.80
2024-04-15T11:05:44.270Z,4.40
2024-04-15T11:08:14.887Z,8.90
2024-04-15T11:10:43.931Z,4.30
2024-04-15T11:13:12.498Z,4.10
2024-04-15T11:15:41.511Z,4.20
2024-04-15T11:18:16.910Z,5.50
2024-04-15T11:20:45.259Z,3.10
2024-04-15T11:23:14.499Z,4.30
2024-04-15T11:25:45.021Z,2.50
2024-04-15T11:28:17.832Z,3.80
2024-04-15T11:30:48.279Z,2.80
2024-04-15T11:33:17.600Z,4.30
2024-04-15T11:35:50.067Z,4.90
2024-04-15T11:38:21.519Z,1.90
2024-04-15T11:40:52.180Z,3.90
2024-04-15T11:43:21.499Z,2.30
2024-04-15T11:45:57.618Z,3.40
2024-04-15T11:48:26.620Z,4.10
2024-04-15T11:50:56.134Z,4.60
2024-04-15T11:53:27.071Z,3.20
2024-04-15T11:55:55.725Z,6.10
2024-04-15T11:58:24.294Z,7.90
2024-04-15T12:00:53.535Z,9.40
2024-04-15T12:03:22.459Z,12.80
2024-04-15T12:05:54.396Z,14.60
2024-04-15T12:08:23.211Z,4.80
2024-04-15T12:10:53.356Z,7.60
2024-04-15T12:13:21.374Z,8.50
2024-04-15T12:15:49.890Z,10.90
2024-04-15T12:18:17.928Z,6.40
2024-04-15T12:20:46.004Z,7.50
2024-04-15T12:23:14.275Z,11.80
2024-04-15T12:25:42.362Z,9.00
2024-04-15T12:28:10.871Z,6.00
2024-04-15T12:30:39.341Z,12.30
2024-04-15T12:33:07.606Z,5.40
2024-04-15T12:35:35.761Z,10.70
2024-04-15T12:38:04.078Z,5.70
2024-04-15T12:40:32.241Z,7.30
2024-04-15T12:43:00.554Z,9.50
2024-04-15T12:45:28.592Z,7.00
2024-04-15T12:47:56.754Z,6.10
2024-04-15T12:50:25.550Z,4.80
2024-04-15T12:52:54.307Z,7.90
2024-04-15T12:55:22.644Z,11.50
2024-04-15T12:57:51.036Z,30.00
2024-04-15T13:00:19.623Z,6.50
2024-04-15T13:02:47.841Z,6.60
2024-04-15T13:05:16.170Z,9.10
2024-04-15T13:07:44.402Z,11.40
2024-04-15T13:10:13.782Z,6.70
2024-04-15T13:12:46.047Z,6.70
2024-04-15T13:15:14.091Z,20.00
2024-04-15T13:17:42.169Z,5.70
2024-04-15T13:20:10.778Z,8.80
2024-04-15T13:22:39.218Z,8.70
2024-04-15T13:25:08.643Z,8.00
2024-04-15T13:27:39.319Z,8.40
2024-04-15T13:30:09.961Z,10.50
2024-04-15T13:32:39.433Z,5.50
2024-04-15T13:35:08.215Z,4.70
2024-04-15T13:37:36.501Z,6.70
2024-04-15T13:40:05.851Z,6.70
2024-04-15T13:42:34.079Z,9.30
2024-04-15T13:45:02.287Z,10.40
2024-04-15T13:47:30.531Z,5.80
2024-04-15T13:49:58.490Z,5.70
2024-04-15T13:52:26.603Z,7.50
2024-04-15T13:54:54.957Z,4.80
2024-04-15T13:57:23.218Z,8.00
2024-04-15T13:59:51.461Z,6.90
2024-04-15T14:02:21.711Z,8.60
2024-04-15T14:04:50.997Z,5.60
2024-04-15T14:07:19.073Z,8.30
2024-04-15T14:09:47.467Z,7.90
2024-04-15T14:12:15.405Z,6.40
2024-04-15T14:14:43.920Z,4.30
2024-04-15T14:17:13.458Z,8.30
2024-04-15T14:19:41.677Z,10.20
2024-04-15T14:22:09.958Z,9.50
2024-04-15T14:24:41.588Z,2.80
2024-04-15T14:27:10.776Z,9.70
2024-04-15T14:29:39.946Z,4.60
2024-04-15T14:32:07.876Z,6.80
2024-04-15T14:34:36.031Z,11.30
2024-04-15T14:37:04.774Z,8.50
2024-04-15T14:39:32.871Z,8.90
2024-04-15T14:42:00.855Z,7.20
2024-04-15T14:44:28.876Z,6.00
2024-04-15T14:46:56.747Z,11.00
2024-04-15T14:49:28.175Z,10.10
2024-04-15T14:51:57.414Z,10.20
2024-04-15T14:54:25.665Z,10.20
2024-04-15T14:56:54.283Z,9.20
2024-04-15T14:59:22.713Z,5.60
2024-04-15T15:01:50.836Z,5.60
2024-04-15T15:04:19.510Z,5.80
2024-04-15T15:06:47.685Z,8.20
2024-04-15T15:09:15.850Z,8.60
2024-04-15T15:11:43.969Z,5.30
2024-04-15T15:14:12.112Z,9.70
2024-04-15T15:16:40.766Z,9.80
2024-04-15T15:19:09.771Z,13.60
2024-04-15T15:21:38.204Z,8.80
2024-04-15T15:24:06.163Z,6.50
2024-04-15T15:26:38.605Z,7.50
2024-04-15T15:29:15.307Z,5.30
2024-04-15T15:31:43.703Z,7.60
2024-04-15T15:34:11.736Z,4.90
2024-04-15T15:36:40.601Z,15.00
2024-04-15T15:39:09.367Z,6.50
2024-04-15T15:41:37.894Z,5.80
2024-04-15T15:44:05.781Z,4.30
2024-04-15T15:46:34.131Z,6.40
2024-04-15T15:49:02.196Z,7.90
2024-04-15T15:51:30.434Z,6.80
2024-04-15T15:53:58.598Z,4.80
2024-04-15T15:56:26.626Z,5.30
2024-04-15T15:58:54.983Z,4.40
2024-04-15T16:01:23.064Z,5.40
2024-04-15T16:03:51.394Z,6.20
2024-04-15T16:06:19.578Z,6.60
2024-04-15T16:08:47.663Z,5.30
2024-04-15T16:11:16.298Z,5.50
2024-04-15T16:13:45.715Z,8.10
2024-04-15T16:16:13.983Z,4.70
2024-04-15T16:18:42.120Z,7.60
2024-04-15T16:21:10.290Z,6.10
2024-04-15T16:23:38.144Z,8.70
2024-04-15T16:26:06.262Z,6.80
2024-04-15T16:28:35.005Z,4.30
2024-04-15T16:31:05.349Z,6.90
2024-04-15T16:33:33.603Z,14.80
2024-04-15T16:36:04.214Z,5.70
2024-04-15T16:38:33.098Z,8.00
2024-04-15T16:41:01.535Z,11.90
2024-04-15T16:43:29.555Z,7.40
2024-04-15T16:45:57.882Z,6.90
2024-04-15T16:48:26.192Z,8.90
2024-04-15T16:50:54.979Z,11.10
2024-04-15T16:53:23.394Z,15.70
2024-04-15T16:55:52.850Z,16.40
2024-04-15T16:58:24.659Z,14.30
2024-04-15T17:00:55.153Z,18.60
2024-04-15T17:03:23.866Z,20.70
2024-04-15T17:05:52.280Z,18.00
2024-04-15T17:08:20.425Z,13.40
2024-04-15T17:10:48.590Z,11.30
2024-04-15T17:13:16.869Z,32.90
2024-04-15T17:15:45.509Z,40.20
2024-04-15T17:18:13.732Z,39.20
2024-04-15T17:20:43.161Z,24.40
2024-04-15T17:23:11.214Z,24.50
2024-04-15T17:25:39.509Z,13.70
2024-04-15T17:28:11.690Z,16.20
2024-04-15T17:30:39.885Z,23.50
2024-04-15T17:33:08.879Z,33.70
2024-04-15T17:35:36.785Z,52.30
2024-04-15T17:38:05.137Z,45.70
2024-04-15T17:40:33.217Z,49.80
2024-04-15T17:43:01.840Z,25.80
2024-04-15T17:45:30.247Z,31.90
2024-04-15T17:47:58.594Z,20.60
2024-04-15T17:50:27.185Z,18.70
2024-04-15T17:52:55.382Z,8.50
2024-04-15T17:55:24.026Z,10.60
2024-04-15T17:57:52.990Z,8.60
2024-04-15T18:00:21.088Z,9.40
2024-04-15T18:02:49.407Z,7.10
2024-04-15T18:05:18.210Z,7.60
2024-04-15T18:07:48.412Z,6.60
2024-04-15T18:10:18.431Z,5.60
2024-04-15T18:12:48.214Z,5.40
2024-04-15T18:15:16.668Z,5.90
2024-04-15T18:17:45.234Z,5.40
2024-04-15T18:20:14.492Z,7.90
2024-04-15T18:22:42.715Z,9.60
2024-04-15T18:25:11.249Z,12.10
2024-04-15T18:27:40.362Z,10.10
2024-04-15T18:30:09.587Z,5.60
2024-04-15T18:32:37.925Z,5.70
2024-04-15T18:35:06.839Z,11.40
2024-04-15T18:37:35.244Z,8.70
2024-04-15T18:40:03.415Z,7.20
2024-04-15T18:42:32.488Z,9.20
2024-04-15T18:45:04.650Z,7.60
2024-04-15T18:47:34.525Z,7.00
2024-04-15T18:50:02.793Z,7.90
2024-04-15T18:52:31.447Z,5.10
2024-04-15T18:54:59.942Z,8.60
2024-04-15T18:57:28.328Z,6.80
2024-04-15T18:59:56.565Z,8.60
2024-04-15T19:02:24.785Z,8.10
2024-04-15T19:04:52.779Z,7.00
2024-04-15T19:07:20.793Z,7.90
2024-04-15T19:09:48.945Z,10.50
2024-04-15T19:12:18.116Z,10.80
2024-04-15T19:14:58.464Z,8.30
2024-04-15T19:17:34.028Z,6.60
2024-04-15T19:20:02.364Z,5.90
2024-04-15T19:22:30.700Z,6.10
2024-04-15T19:24:58.969Z,5.00
2024-04-15T19:27:27.267Z,10.10
2024-04-15T19:29:55.742Z,5.10
2024-04-15T19:32:24.408Z,6.20
2024-04-15T19:34:52.751Z,7.60
2024-04-15T19:37:21.205Z,9.00
2024-04-15T19:39:49.572Z,5.60
2024-04-15T19:42:18.944Z,6.40
2024-04-15T19:44:46.807Z,5.80
2024-04-15T19:47:14.987Z,8.10
2024-04-15T19:49:43.029Z,9.10
2024-04-15T19:52:11.578Z,4.90
2024-04-15T19:54:39.790Z,6.40
2024-04-15T19:57:07.910Z,8.00
2024-04-15T19:59:35.941Z,3.80
2024-04-15T20:02:04.688Z,5.90
2024-04-15T20:04:32.720Z,7.60
2024-04-15T20:07:00.918Z,5.90
2024-04-15T20:09:28.840Z,6.90
2024-04-15T20:11:56.743Z,7.00
2024-04-15T20:14:24.833Z,4.90
2024-04-15T20:17:00.325Z,7.50
2024-04-15T20:19:30.350Z,9.10
2024-04-15T20:21:58.619Z,10.50
2024-04-15T20:24:26.808Z,10.50
2024-04-15T20:26:55.030Z,9.80
2024-04-15T20:29:23.919Z,10.10
2024-04-15T20:31:51.795Z,13.70
2024-04-15T20:34:20.073Z,9.00
2024-04-15T20:36:48.230Z,9.90
2024-04-15T20:39:16.317Z,9.30
2024-04-15T20:41:44.166Z,9.40
2024-04-15T20:44:12.138Z,11.80
2024-04-15T20:46:40.597Z,13.80
2024-04-15T20:49:08.773Z,12.00
2024-04-15T20:51:36.772Z,11.30
2024-04-15T20:54:04.832Z,8.80
2024-04-15T20:56:33.117Z,17.10
2024-04-15T20:59:01.187Z,14.30
2024-04-15T21:01:29.489Z,12.10
2024-04-15T21:03:58.399Z,10.50
2024-04-15T21:06:26.644Z,11.80
2024-04-15T21:08:56.091Z,8.00
2024-04-15T21:11:23.976Z,9.50
2024-04-15T21:13:53.471Z,9.70
2024-04-15T21:16:21.307Z,9.00
2024-04-15T21:18:50.124Z,8.30
2024-04-15T21:21:18.052Z,7.90
2024-04-15T21:23:45.875Z,9.40
2024-04-15T21:26:14.167Z,9.50
2024-04-15T21:28:42.154Z,10.50
2024-04-15T21:31:10.145Z,12.30
2024-04-15T21:33:38.226Z,9.40
2024-04-15T21:36:08.426Z,11.10
2024-04-15T21:38:36.393Z,10.50
2024-04-15T21:41:04.748Z,12.30
2024-04-15T21:43:32.949Z,10.30
2024-04-15T21:46:00.822Z,13.00
2024-04-15T21:48:29.070Z,11.20
2024-04-15T21:50:57.323Z,9.40
2024-04-15T21:53:25.728Z,10.40
2024-04-15T21:55:54.095Z,12.10
2024-04-15T21:58:22.111Z,11.00
2024-04-15T22:00:50.505Z,9.50
2024-04-15T22:03:18.688Z,15.10
2024-04-15T22:05:46.951Z,8.10
2024-04-15T22:08:14.894Z,12.50
2024-04-15T22:10:42.979Z,9.60
2024-04-15T22:13:11.006Z,12.10
2024-04-15T22:15:39.289Z,7.70
2024-04-15T22:18:08.190Z,11.60
2024-04-15T22:20:36.153Z,11.70
2024-04-15T22:23:04.770Z,10.20
2024-04-15T22:25:33.191Z,15.70
2024-04-15T22:28:01.266Z,8.50
2024-04-15T22:30:29.277Z,12.10
2024-04-15T22:32:57.471Z,13.70
2024-04-15T22:35:25.914Z,12.80
2024-04-15T22:37:54.035Z,14.00
2024-04-15T22:40:22.679Z,11.20
2024-04-15T22:42:52.703Z,11.00
2024-04-15T22:45:20.655Z,9.30
2024-04-15T22:47:48.701Z,9.60
2024-04-15T22:50:16.943Z,8.10
2024-04-15T22:52:44.739Z,8.20
2024-04-15T22:55:12.567Z,6.80
2024-04-15T22:57:41.015Z,9.20
2024-04-15T23:00:09.745Z,11.00
2024-04-15T23:02:37.633Z,11.10
2024-04-15T23:05:06.025Z,9.10
2024-04-15T23:07:34.259Z,8.60
2024-04-15T23:10:02.378Z,9.00
2024-04-15T23:12:30.613Z,11.50
2024-04-15T23:14:58.546Z,9.90
2024-04-15T23:17:26.456Z,7.80
2024-04-15T23:19:54.487Z,10.10
2024-04-15T23:22:22.358Z,6.80
2024-04-15T23:24:50.318Z,9.10
2024-04-15T23:27:18.337Z,8.00
2024-04-15T23:29:46.425Z,11.70
2024-04-15T23:32:14.377Z,6.10
2024-04-15T23:34:42.174Z,9.10
2024-04-15T23:37:10.246Z,8.10
2024-04-15T23:39:38.359Z,7.40
2024-04-15T23:42:06.167Z,10.90
2024-04-15T23:44:34.101Z,15.30
2024-04-15T23:47:20.767Z,9.10
2024-04-15T23:50:07.692Z,11.90
2024-04-15T23:52:54.576Z,11.90
2024-04-15T23:58:10.529Z,10.30
